Time;durP1;ratioP1;P1;durP2;ratioP2;P2;SDS_P1;SDS_P2;PMS_P1;PMS_P2;Temp;Humidity;BMP_temperature;BMP_pressure;BME280_temperature;BME280_humidity;BME280_pressure;Samples;Min_cycle;Max_cycle;Signal;HPM_P1;HPM_P2
2023/08/02 00:00:51;;;;;;;7.40;2.33;;;16.50;32.10;;;;;;5009361;28;20483;-63
2023/08/02 00:03:19;;;;;;;5.10;2.10;;;16.50;31.40;;;;;;5009520;28;20471;-64
2023/08/02 00:05:53;;;;;;;4.80;1.80;;;16.50;31.40;;;;;;5008236;28;20468;-63
2023/08/02 00:08:19;;;;;;;4.47;1.80;;;16.50;31.30;;;;;;5008575;28;20496;-63
2023/08/02 00:10:47;;;;;;;5.73;2.40;;;16.40;31.90;;;;;;5009628;28;20470;-64
2023/08/02 00:13:14;;;;;;;7.10;2.40;;;16.40;31.20;;;;;;5008360;28;20468;-63
2023/08/02 00:15:41;;;;;;;5.07;2.07;;;16.40;31.10;;;;;;5007576;28;20471;-64
2023/08/02 00:18:08;;;;;;;5.27;2.20;;;16.40;31.20;;;;;;5009532;28;20464;-63
2023/08/02 00:20:36;;;;;;;6.23;2.00;;;16.40;31.20;;;;;;5008231;28;20471;-63
2023/08/02 00:23:03;;;;;;;4.30;2.00;;;16.40;31.30;;;;;;5008496;28;21003;-64
2023/08/02 00:25:30;;;;;;;5.77;2.17;;;16.40;31.10;;;;;;5009840;28;21000;-63
2023/08/02 00:27:59;;;;;;;5.30;1.93;;;16.40;31.00;;;;;;5007753;28;20852;-63
2023/08/02 00:30:26;;;;;;;5.70;2.33;;;16.50;31.10;;;;;;5008619;28;20464;-63
2023/08/02 00:32:52;;;;;;;5.33;2.30;;;16.50;31.00;;;;;;5009152;28;20464;-63
2023/08/02 00:35:19;;;;;;;4.90;2.20;;;16.40;30.90;;;;;;5008095;28;20505;-63
2023/08/02 00:37:46;;;;;;;6.67;2.23;;;16.50;31.00;;;;;;5009811;28;20964;-63
2023/08/02 00:40:13;;;;;;;5.80;2.53;;;16.40;31.00;;;;;;5006833;28;20558;-63
2023/08/02 00:42:40;;;;;;;4.50;2.03;;;16.50;31.00;;;;;;5008412;28;20976;-64
2023/08/02 00:45:09;;;;;;;5.60;2.10;;;16.50;30.90;;;;;;5006370;28;20487;-64
2023/08/02 00:47:36;;;;;;;6.03;2.23;;;16.40;30.90;;;;;;5007821;28;20467;-64
2023/08/02 00:50:05;;;;;;;5.70;1.97;;;16.40;30.90;;;;;;5008496;28;20459;-63
2023/08/02 00:52:32;;;;;;;4.70;2.20;;;16.40;30.80;;;;;;5007757;28;21219;-63
2023/08/02 00:54:59;;;;;;;5.13;2.57;;;16.40;30.80;;;;;;5005937;28;20487;-64
2023/08/02 00:57:26;;;;;;;5.30;2.80;;;16.40;30.70;;;;;;5007549;28;20459;-63
2023/08/02 00:59:52;;;;;;;5.73;2.00;;;16.40;30.80;;;;;;5008957;28;20480;-63
2023/08/02 01:02:20;;;;;;;5.00;2.13;;;16.40;30.70;;;;;;5007636;28;20476;-63
2023/08/02 01:04:48;;;;;;;7.87;2.77;;;16.40;30.80;;;;;;5006407;28;20500;-64
2023/08/02 01:07:24;;;;;;;4.90;2.57;;;16.40;30.80;;;;;;5008507;28;20471;-64
2023/08/02 01:09:55;;;;;;;5.83;2.13;;;16.30;31.00;;;;;;5004365;28;20472;-63
2023/08/02 01:12:24;;;;;;;5.80;2.43;;;16.20;30.90;;;;;;5007906;28;20468;-64
2023/08/02 01:14:56;;;;;;;6.07;2.87;;;16.20;31.00;;;;;;5003038;28;20495;-63
2023/08/02 01:17:26;;;;;;;5.63;2.60;;;16.20;31.20;;;;;;5009298;28;20483;-64
2023/08/02 01:19:53;;;;;;;5.23;2.33;;;16.20;31.30;;;;;;5007144;28;21143;-63
2023/08/02 01:22:21;;;;;;;4.47;2.10;;;16.20;31.30;;;;;;5008416;23;20896;-63
2023/08/02 01:24:48;;;;;;;7.10;2.43;;;16.10;31.50;;;;;;4986838;28;20484;-63
2023/08/02 01:27:18;;;;;;;4.90;2.20;;;16.00;31.50;;;;;;4985650;28;20847;-63
2023/08/02 01:29:50;;;;;;;5.20;2.17;;;16.00;31.50;;;;;;4989039;28;20465;-63
2023/08/02 01:32:18;;;;;;;7.00;2.80;;;16.00;31.60;;;;;;4998755;28;20588;-63
2023/08/02 01:34:45;;;;;;;6.13;2.50;;;15.90;31.70;;;;;;5005697;28;20487;-63
2023/08/02 01:37:12;;;;;;;4.83;2.10;;;15.90;31.70;;;;;;5006797;28;21185;-63
2023/08/02 01:39:40;;;;;;;8.47;2.73;;;15.90;31.80;;;;;;5006826;28;20467;-63
2023/08/02 01:42:07;;;;;;;5.90;2.70;;;15.80;31.90;;;;;;5005869;28;21207;-63
2023/08/02 01:44:33;;;;;;;6.90;3.07;;;15.80;32.00;;;;;;5006236;28;21145;-63
2023/08/02 01:47:00;;;;;;;6.20;3.50;;;15.80;32.00;;;;;;5005397;28;20704;-63
2023/08/02 01:49:27;;;;;;;7.67;3.00;;;15.80;32.00;;;;;;5005642;28;20467;-63
2023/08/02 01:51:54;;;;;;;6.30;2.17;;;15.80;32.00;;;;;;5007597;28;20464;-63
2023/08/02 01:54:21;;;;;;;6.30;2.90;;;15.70;32.10;;;;;;5001431;28;21188;-63
2023/08/02 01:56:49;;;;;;;5.93;3.30;;;15.70;32.30;;;;;;5007989;28;20464;-63
2023/08/02 01:59:15;;;;;;;5.20;2.17;;;15.70;32.10;;;;;;5005992;28;20468;-63
2023/08/02 02:01:42;;;;;;;5.13;3.07;;;15.70;32.30;;;;;;5005607;28;20484;-63
2023/08/02 02:04:09;;;;;;;9.10;3.23;;;15.60;32.30;;;;;;5004627;28;20486;-63
2023/08/02 02:06:35;;;;;;;6.43;3.20;;;15.70;32.50;;;;;;5005108;28;21030;-63
2023/08/02 02:09:02;;;;;;;9.03;3.70;;;15.60;32.30;;;;;;5008503;28;20468;-63
2023/08/02 02:11:29;;;;;;;6.17;3.20;;;15.60;32.40;;;;;;5006565;28;20472;-64
2023/08/02 02:13:57;;;;;;;6.97;2.80;;;15.60;32.30;;;;;;5005389;28;20484;-64
2023/08/02 02:16:23;;;;;;;7.77;3.20;;;15.60;32.30;;;;;;5003496;28;20858;-64
2023/08/02 02:18:50;;;;;;;5.73;2.73;;;15.60;32.40;;;;;;5002939;28;20467;-64
2023/08/02 02:21:17;;;;;;;9.07;3.00;;;15.60;32.30;;;;;;5000592;28;20502;-64
2023/08/02 02:23:43;;;;;;;6.47;2.83;;;15.50;32.40;;;;;;5007509;28;20488;-63
2023/08/02 02:26:10;;;;;;;5.67;2.77;;;15.50;32.40;;;;;;5004130;28;20459;-63
2023/08/02 02:28:37;;;;;;;9.20;2.80;;;15.50;32.50;;;;;;5003766;28;20464;-63
2023/08/02 02:31:05;;;;;;;5.90;3.10;;;15.50;32.50;;;;;;5000881;28;20985;-63
2023/08/02 02:33:31;;;;;;;6.07;3.10;;;15.40;32.50;;;;;;5006447;28;20468;-63
2023/08/02 02:35:58;;;;;;;8.37;3.70;;;15.40;32.40;;;;;;5002463;28;20459;-63
2023/08/02 02:38:25;;;;;;;6.70;4.77;;;15.40;32.50;;;;;;5003614;28;20554;-63
2023/08/02 02:40:52;;;;;;;6.63;3.70;;;15.40;32.60;;;;;;5004204;28;20484;-63
2023/08/02 02:43:18;;;;;;;8.63;3.20;;;15.40;32.70;;;;;;5005914;28;20480;-64
2023/08/02 02:45:45;;;;;;;7.23;3.20;;;15.40;32.50;;;;;;5006569;28;20467;-63
2023/08/02 02:48:13;;;;;;;5.77;3.00;;;15.40;32.60;;;;;;5004421;28;20467;-63
2023/08/02 02:50:40;;;;;;;6.30;3.20;;;15.30;32.70;;;;;;5005156;28;21079;-63
2023/08/02 02:53:07;;;;;;;7.93;3.93;;;15.30;32.70;;;;;;5005494;28;20482;-63
2023/08/02 02:55:33;;;;;;;7.00;3.77;;;15.30;32.80;;;;;;5002823;28;21046;-64
2023/08/02 02:58:00;;;;;;;6.67;3.20;;;15.30;32.90;;;;;;5002815;28;20464;-63
2023/08/02 03:00:27;;;;;;;7.03;3.70;;;15.30;32.80;;;;;;5005278;28;20474;-63
2023/08/02 03:02:53;;;;;;;8.87;4.10;;;15.20;32.80;;;;;;5007256;28;20464;-63
2023/08/02 03:05:21;;;;;;;8.23;3.57;;;15.30;32.80;;;;;;4999753;28;20495;-63
2023/08/02 03:07:48;;;;;;;7.23;3.60;;;15.30;32.60;;;;;;5003430;28;20479;-64
2023/08/02 03:10:15;;;;;;;8.83;3.83;;;15.20;32.70;;;;;;5003439;28;20464;-63
2023/08/02 03:12:42;;;;;;;6.33;3.57;;;15.20;32.90;;;;;;5005835;28;20456;-63
2023/08/02 03:15:09;;;;;;;6.20;3.60;;;15.20;32.80;;;;;;5004486;28;20819;-63
2023/08/02 03:17:36;;;;;;;9.70;4.37;;;15.20;32.90;;;;;;5003437;28;20465;-63
2023/08/02 03:20:03;;;;;;;9.80;4.47;;;15.10;33.10;;;;;;5002710;28;20464;-63
2023/08/02 03:22:31;;;;;;;7.23;3.93;;;15.10;33.20;;;;;;5006201;28;20483;-63
2023/08/02 03:24:58;;;;;;;8.03;4.10;;;15.00;33.10;;;;;;5006257;28;20498;-63
2023/08/02 03:27:24;;;;;;;8.87;4.63;;;15.00;33.30;;;;;;5002069;28;20464;-64
2023/08/02 03:29:51;;;;;;;10.73;4.40;;;15.00;33.20;;;;;;5001331;28;20468;-64
2023/08/02 03:32:18;;;;;;;6.60;3.90;;;15.00;33.40;;;;;;5001927;28;20476;-64
2023/08/02 03:34:45;;;;;;;8.73;4.87;;;14.90;33.50;;;;;;5001861;28;20488;-64
2023/08/02 03:37:11;;;;;;;8.47;4.90;;;14.90;33.60;;;;;;5005698;28;20502;-64
2023/08/02 03:39:39;;;;;;;10.73;4.47;;;14.90;33.40;;;;;;5005670;28;20483;-64
2023/08/02 03:42:07;;;;;;;8.10;5.03;;;14.90;33.60;;;;;;5003241;28;20486;-64
2023/08/02 03:44:34;;;;;;;8.00;4.70;;;14.90;33.50;;;;;;5003516;28;20495;-64
2023/08/02 03:47:01;;;;;;;12.20;4.87;;;14.90;33.50;;;;;;5008748;28;20480;-64
2023/08/02 03:49:27;;;;;;;9.90;4.30;;;14.90;33.70;;;;;;5012521;28;20460;-64
2023/08/02 03:51:54;;;;;;;8.43;4.93;;;14.90;33.60;;;;;;5011282;28;20464;-64
2023/08/02 03:54:21;;;;;;;13.60;5.90;;;15.00;34.20;;;;;;5004588;28;20494;-65
2023/08/02 03:56:49;;;;;;;10.93;5.40;;;15.00;33.60;;;;;;5006752;28;20706;-67
2023/08/02 03:59:15;;;;;;;8.43;5.23;;;15.10;33.70;;;;;;5005178;28;20968;-65
2023/08/02 04:01:42;;;;;;;7.70;5.13;;;15.10;33.80;;;;;;5005646;28;20494;-66
2023/08/02 04:04:09;;;;;;;8.43;5.00;;;15.20;34.00;;;;;;5007482;28;20675;-67
2023/08/02 04:06:36;;;;;;;9.30;4.87;;;15.20;34.00;;;;;;5013544;28;20474;-67
2023/08/02 04:09:02;;;;;;;8.83;4.50;;;15.20;34.30;;;;;;5014151;28;20456;-67
2023/08/02 04:11:30;;;;;;;7.83;4.33;;;15.20;34.60;;;;;;5008424;28;20545;-65
2023/08/02 04:13:58;;;;;;;7.50;5.10;;;15.30;34.70;;;;;;5011298;28;20497;-65
2023/08/02 04:16:25;;;;;;;10.07;4.50;;;15.30;34.80;;;;;;5011320;28;20503;-65
2023/08/02 04:18:52;;;;;;;8.20;5.13;;;15.30;35.00;;;;;;5013339;28;20478;-65
2023/08/02 04:21:19;;;;;;;8.60;5.47;;;15.30;35.00;;;;;;5013918;28;21007;-65
2023/08/02 04:23:47;;;;;;;8.77;5.20;;;15.40;35.00;;;;;;5013080;28;20491;-65
2023/08/02 04:26:14;;;;;;;10.80;5.37;;;15.40;34.70;;;;;;5013599;28;20455;-65
2023/08/02 04:28:41;;;;;;;12.63;5.50;;;15.40;34.70;;;;;;5013367;28;20463;-65
2023/08/02 04:31:09;;;;;;;9.10;5.60;;;15.40;34.60;;;;;;5012860;28;20486;-65
2023/08/02 04:33:36;;;;;;;7.63;5.10;;;15.50;34.60;;;;;;5007220;28;20492;-65
2023/08/02 04:36:03;;;;;;;11.30;6.67;;;15.50;34.60;;;;;;5009519;28;20829;-65
2023/08/02 04:38:29;;;;;;;9.90;5.43;;;15.60;34.50;;;;;;5006267;28;20460;-65
2023/08/02 04:40:57;;;;;;;10.40;6.13;;;15.60;34.60;;;;;;5012841;28;20463;-65
2023/08/02 04:43:24;;;;;;;11.27;6.10;;;15.60;34.60;;;;;;5008004;28;20471;-65
2023/08/02 04:45:50;;;;;;;10.43;5.90;;;15.70;34.60;;;;;;5000639;28;20992;-65
2023/08/02 04:48:18;;;;;;;14.50;6.27;;;15.70;34.50;;;;;;5009685;28;20464;-65
2023/08/02 04:50:45;;;;;;;9.70;6.67;;;15.80;34.40;;;;;;5009123;28;20470;-65
2023/08/02 04:53:12;;;;;;;11.90;6.27;;;15.80;34.40;;;;;;5010148;28;20463;-64
2023/08/02 04:55:42;;;;;;;8.90;6.00;;;15.90;34.40;;;;;;5011308;28;20474;-64
2023/08/02 04:58:09;;;;;;;11.37;6.00;;;16.00;34.10;;;;;;5005490;28;20492;-64
2023/08/02 05:00:36;;;;;;;10.63;5.90;;;16.00;33.90;;;;;;5009327;28;20467;-64
2023/08/02 05:03:03;;;;;;;11.33;7.47;;;16.10;33.70;;;;;;5004593;28;20476;-65
2023/08/02 05:05:31;;;;;;;10.30;7.00;;;16.10;33.70;;;;;;5008593;28;20818;-65
2023/08/02 05:07:57;;;;;;;11.23;6.17;;;16.10;32.90;;;;;;5007264;28;20460;-65
2023/08/02 05:10:24;;;;;;;9.60;6.53;;;16.20;32.60;;;;;;5010190;28;20463;-65
2023/08/02 05:12:51;;;;;;;11.77;7.40;;;16.20;32.70;;;;;;5010481;28;20452;-65
2023/08/02 05:15:18;;;;;;;12.07;7.13;;;16.30;32.70;;;;;;5010765;28;21204;-64
2023/08/02 05:17:44;;;;;;;12.80;7.27;;;16.30;32.70;;;;;;5009675;28;20534;-65
2023/08/02 05:20:12;;;;;;;9.50;6.93;;;16.30;32.50;;;;;;5008127;28;20473;-65
2023/08/02 05:22:40;;;;;;;12.90;7.50;;;16.40;32.30;;;;;;5009571;28;20490;-65
2023/08/02 05:25:08;;;;;;;11.80;6.97;;;16.40;32.10;;;;;;5010991;28;20480;-65
2023/08/02 05:27:34;;;;;;;11.00;7.60;;;16.40;32.00;;;;;;5009693;28;20452;-65
2023/08/02 05:30:01;;;;;;;11.10;7.90;;;16.50;32.10;;;;;;5011327;28;20460;-65
2023/08/02 05:32:28;;;;;;;12.53;7.43;;;16.50;32.00;;;;;;5004167;28;21238;-65
2023/08/02 05:34:54;;;;;;;10.43;7.20;;;16.50;31.90;;;;;;5009835;28;20611;-65
2023/08/02 05:37:21;;;;;;;12.93;8.07;;;16.50;32.00;;;;;;5009727;28;20456;-64
2023/08/02 05:39:49;;;;;;;9.53;6.33;;;16.50;32.10;;;;;;5010141;28;20452;-64
2023/08/02 05:42:16;;;;;;;12.00;6.83;;;16.50;32.40;;;;;;5009123;28;20483;-65
2023/08/02 05:44:42;;;;;;;10.67;6.97;;;16.60;32.20;;;;;;5006432;28;21043;-65
2023/08/02 05:47:09;;;;;;;11.50;7.50;;;16.60;32.20;;;;;;5008895;28;20494;-65
2023/08/02 05:49:36;;;;;;;10.63;7.30;;;16.60;32.40;;;;;;5007400;28;20471;-65
2023/08/02 05:52:03;;;;;;;11.03;7.07;;;16.60;32.60;;;;;;5009558;28;20963;-65
2023/08/02 05:54:29;;;;;;;11.70;7.37;;;16.60;32.70;;;;;;5005798;28;20485;-64
2023/08/02 05:56:57;;;;;;;12.00;8.03;;;16.70;32.80;;;;;;5009459;28;21093;-65
2023/08/02 05:59:24;;;;;;;12.73;7.33;;;16.70;32.70;;;;;;5009734;28;20460;-66
2023/08/02 06:01:51;;;;;;;11.53;7.70;;;16.70;32.90;;;;;;4996699;28;20479;-65
2023/08/02 06:04:20;;;;;;;10.80;7.70;;;16.70;32.90;;;;;;5008791;28;20965;-65
2023/08/02 06:06:47;;;;;;;9.73;6.47;;;16.70;33.00;;;;;;5004802;28;20597;-65
2023/08/02 06:09:14;;;;;;;10.50;7.37;;;16.80;32.90;;;;;;5009241;28;20451;-65
2023/08/02 06:11:40;;;;;;;12.83;7.63;;;16.80;32.90;;;;;;5007861;28;20455;-65
2023/08/02 06:14:08;;;;;;;9.37;6.57;;;16.80;32.80;;;;;;5009613;28;20480;-65
2023/08/02 06:16:36;;;;;;;12.03;7.70;;;16.80;33.30;;;;;;5009418;28;20456;-65
2023/08/02 06:19:02;;;;;;;10.10;6.70;;;16.80;33.50;;;;;;4998519;28;20449;-65
2023/08/02 06:21:29;;;;;;;10.40;6.47;;;16.90;33.60;;;;;;5008464;28;20460;-65
2023/08/02 06:23:56;;;;;;;11.67;6.13;;;16.90;33.90;;;;;;5009331;28;20491;-65
2023/08/02 06:26:22;;;;;;;9.30;5.97;;;17.00;33.60;;;;;;5008185;28;20471;-65
2023/08/02 06:28:49;;;;;;;10.80;6.47;;;17.10;33.60;;;;;;5004929;28;20456;-65
2023/08/02 06:31:17;;;;;;;9.07;5.57;;;17.20;33.40;;;;;;5008120;28;20478;-65
2023/08/02 06:33:44;;;;;;;9.80;6.00;;;17.20;33.30;;;;;;5005855;28;21003;-65
2023/08/02 06:36:11;;;;;;;10.73;6.10;;;17.20;33.30;;;;;;5001688;28;20471;-65
2023/08/02 06:38:37;;;;;;;8.70;5.67;;;17.20;33.30;;;;;;5009081;28;20463;-65
2023/08/02 06:41:04;;;;;;;8.73;5.87;;;17.20;33.20;;;;;;5009138;28;20471;-65
2023/08/02 06:43:31;;;;;;;10.33;5.37;;;17.30;33.20;;;;;;5007514;28;20487;-65
2023/08/02 06:45:57;;;;;;;8.20;5.20;;;17.30;33.50;;;;;;5007382;28;20468;-65
2023/08/02 06:48:27;;;;;;;7.80;5.20;;;17.30;33.40;;;;;;5009219;28;20558;-65
2023/08/02 06:50:54;;;;;;;7.90;4.90;;;17.30;33.50;;;;;;5008167;28;20452;-65
2023/08/02 06:53:21;;;;;;;8.27;5.07;;;17.40;33.50;;;;;;5009006;28;21330;-65
2023/08/02 06:55:47;;;;;;;9.90;5.40;;;17.40;33.30;;;;;;5008619;28;20478;-65
2023/08/02 06:58:14;;;;;;;8.47;4.70;;;17.40;33.70;;;;;;5004778;28;20725;-65
2023/08/02 07:00:41;;;;;;;11.90;5.60;;;17.40;33.90;;;;;;5004924;28;20468;-65
2023/08/02 07:03:08;;;;;;;9.33;4.90;;;17.40;33.90;;;;;;5008149;28;20490;-65
2023/08/02 07:05:36;;;;;;;7.67;4.60;;;17.50;33.80;;;;;;5008787;28;20479;-65
2023/08/02 07:08:04;;;;;;;6.70;4.20;;;17.60;33.70;;;;;;5005146;28;20464;-65
2023/08/02 07:10:32;;;;;;;10.47;4.30;;;17.60;33.50;;;;;;5007404;28;20495;-65
2023/08/02 07:12:58;;;;;;;8.90;4.33;;;17.70;33.40;;;;;;5008043;28;20448;-65
2023/08/02 07:15:25;;;;;;;8.97;4.67;;;17.70;33.70;;;;;;5007941;28;20479;-65
2023/08/02 07:17:52;;;;;;;7.53;4.60;;;17.90;33.90;;;;;;5006822;28;20464;-65
2023/08/02 07:20:19;;;;;;;6.40;3.83;;;18.10;33.20;;;;;;5007922;28;20499;-65
2023/08/02 07:22:47;;;;;;;6.70;3.80;;;18.30;32.60;;;;;;5008618;28;20484;-65
2023/08/02 07:25:14;;;;;;;7.70;4.33;;;18.20;32.10;;;;;;5007601;28;20483;-65
2023/08/02 07:27:40;;;;;;;7.10;3.60;;;18.30;32.20;;;;;;5007997;28;20479;-65
2023/08/02 07:30:08;;;;;;;6.73;3.83;;;18.20;32.30;;;;;;5004467;28;20468;-65
2023/08/02 07:32:35;;;;;;;8.53;3.77;;;18.20;32.60;;;;;;5007710;28;20464;-65
2023/08/02 07:35:02;;;;;;;8.10;3.17;;;18.20;32.80;;;;;;5006429;28;20652;-65
2023/08/02 07:37:28;;;;;;;11.87;4.10;;;18.10;32.90;;;;;;5007697;28;20464;-66
2023/08/02 07:39:56;;;;;;;5.80;3.17;;;18.10;33.00;;;;;;5006586;28;20459;-65
2023/08/02 07:42:23;;;;;;;8.90;4.10;;;18.10;33.60;;;;;;5003958;28;20479;-65
2023/08/02 07:45:05;;;;;;;5.77;3.50;;;18.10;34.00;;;;;;5008005;28;20476;-65
2023/08/02 07:47:32;;;;;;;6.13;3.80;;;18.10;34.00;;;;;;5008111;28;20492;-65
2023/08/02 07:49:59;;;;;;;9.47;4.20;;;18.20;33.80;;;;;;5008348;28;20456;-65
2023/08/02 07:52:25;;;;;;;5.90;3.67;;;18.20;33.90;;;;;;5005044;28;20463;-65
2023/08/02 07:54:52;;;;;;;6.17;3.33;;;18.30;34.20;;;;;;5005264;28;20479;-65
2023/08/02 07:57:21;;;;;;;9.37;4.23;;;18.30;34.10;;;;;;5008582;28;20483;-65
2023/08/02 07:59:47;;;;;;;7.13;3.20;;;18.30;34.20;;;;;;5005622;28;20535;-65
2023/08/02 08:02:14;;;;;;;5.80;3.53;;;18.40;34.20;;;;;;5005030;28;20479;-64
2023/08/02 08:04:41;;;;;;;6.83;3.50;;;18.40;33.70;;;;;;5007017;28;20486;-65
2023/08/02 08:07:08;;;;;;;7.83;4.27;;;18.40;33.90;;;;;;5005195;28;20465;-65
2023/08/02 08:09:35;;;;;;;5.80;3.30;;;18.40;34.10;;;;;;5007403;28;20467;-65
2023/08/02 08:12:03;;;;;;;5.93;3.17;;;18.40;34.00;;;;;;5007975;28;20458;-65
2023/08/02 08:14:31;;;;;;;7.60;4.00;;;18.30;33.90;;;;;;5008271;28;20569;-65
2023/08/02 08:16:58;;;;;;;7.57;3.10;;;18.30;34.50;;;;;;5007616;28;20482;-65
2023/08/02 08:19:25;;;;;;;6.90;3.80;;;18.30;34.70;;;;;;5011290;28;20460;-65
2023/08/02 08:21:52;;;;;;;5.60;3.20;;;18.40;35.00;;;;;;5009599;28;20465;-65
2023/08/02 08:24:19;;;;;;;7.00;3.00;;;18.40;34.90;;;;;;5011547;28;20498;-65
2023/08/02 08:26:46;;;;;;;6.53;3.60;;;18.60;34.60;;;;;;5010572;28;20455;-65
2023/08/02 08:29:13;;;;;;;6.67;3.63;;;18.60;34.10;;;;;;5007725;28;20475;-65
2023/08/02 08:31:41;;;;;;;7.60;3.90;;;18.70;34.30;;;;;;5007316;28;20471;-65
2023/08/02 08:34:07;;;;;;;6.80;3.20;;;18.80;34.60;;;;;;5010845;28;20482;-65
2023/08/02 08:36:34;;;;;;;7.60;3.33;;;18.80;33.00;;;;;;5011645;28;20459;-65
2023/08/02 08:39:01;;;;;;;6.40;3.30;;;18.80;33.40;;;;;;5011385;28;20459;-65
2023/08/02 08:41:27;;;;;;;6.73;3.30;;;18.70;33.10;;;;;;5010288;28;20451;-65
2023/08/02 08:43:54;;;;;;;5.63;2.77;;;18.70;33.80;;;;;;5009218;28;20494;-65
2023/08/02 08:46:21;;;;;;;7.57;3.27;;;18.80;33.20;;;;;;5011597;28;20463;-65
2023/08/02 08:48:50;;;;;;;5.13;2.40;;;18.80;32.60;;;;;;5008723;28;20838;-65
2023/08/02 08:51:21;;;;;;;6.40;2.93;;;18.70;33.20;;;;;;5011121;28;20456;-65
2023/08/02 08:53:49;;;;;;;5.70;3.23;;;18.70;33.80;;;;;;5011740;28;20996;-65
2023/08/02 08:56:18;;;;;;;6.40;3.40;;;18.70;33.90;;;;;;5011422;28;20463;-65
2023/08/02 08:58:45;;;;;;;6.33;3.10;;;18.70;34.00;;;;;;5006118;28;20493;-65
2023/08/02 09:01:13;;;;;;;5.63;2.70;;;18.70;33.20;;;;;;5007907;28;20481;-65
2023/08/02 09:03:40;;;;;;;6.37;3.57;;;18.70;33.50;;;;;;5007007;28;20496;-65
2023/08/02 09:06:09;;;;;;;6.67;3.00;;;18.60;33.50;;;;;;5007891;28;20464;-65
2023/08/02 09:08:43;;;;;;;5.13;3.13;;;18.60;33.80;;;;;;5010567;28;20945;-65
2023/08/02 09:11:11;;;;;;;6.10;3.10;;;18.50;34.40;;;;;;5009786;28;20451;-65
2023/08/02 09:13:38;;;;;;;5.30;3.17;;;18.50;34.60;;;;;;5009564;28;20472;-65
2023/08/02 09:16:09;;;;;;;8.87;3.63;;;18.50;34.50;;;;;;5006191;28;20467;-65
2023/08/02 09:18:38;;;;;;;6.93;3.27;;;18.40;34.80;;;;;;5010385;28;20479;-65
2023/08/02 09:21:05;;;;;;;6.60;3.57;;;18.40;34.90;;;;;;5009046;28;20459;-65
2023/08/02 09:23:33;;;;;;;10.20;3.47;;;18.40;34.80;;;;;;5010174;28;20503;-65
2023/08/02 09:26:15;;;;;;;7.13;3.90;;;18.40;35.00;;;;;;5010242;28;20460;-66
2023/08/02 09:28:42;;;;;;;5.37;3.20;;;18.40;34.90;;;;;;5009162;28;20907;-65
2023/08/02 09:31:16;;;;;;;7.37;3.10;;;18.50;35.00;;;;;;5006255;28;20547;-65
2023/08/02 09:33:50;;;;;;;6.40;2.80;;;18.50;35.10;;;;;;5009147;28;20489;-65
2023/08/02 09:36:22;;;;;;;6.13;3.63;;;18.60;34.30;;;;;;5010339;28;20456;-65
2023/08/02 09:38:57;;;;;;;5.57;2.40;;;18.60;34.20;;;;;;5009825;28;20936;-65
2023/08/02 09:41:24;;;;;;;5.73;3.40;;;18.70;34.00;;;;;;5008535;28;20456;-65
2023/08/02 09:43:51;;;;;;;5.33;2.97;;;18.80;34.20;;;;;;5010443;28;20510;-65
2023/08/02 09:46:26;;;;;;;7.07;3.07;;;19.00;33.20;;;;;;5008895;28;20518;-65
2023/08/02 09:48:53;;;;;;;5.90;3.13;;;19.10;33.30;;;;;;5009773;28;20541;-66
2023/08/02 09:51:20;;;;;;;8.77;3.60;;;19.30;32.80;;;;;;5009441;28;20452;-65
2023/08/02 09:53:57;;;;;;;8.73;3.57;;;19.40;32.90;;;;;;5010369;28;20467;-66
2023/08/02 09:56:25;;;;;;;6.67;3.20;;;19.50;32.50;;;;;;5008134;28;20459;-65
2023/08/02 09:58:55;;;;;;;5.63;2.97;;;19.70;32.20;;;;;;5004322;28;20491;-65
2023/08/02 10:01:24;;;;;;;6.00;3.20;;;20.10;30.20;;;;;;5008144;28;20467;-65
2023/08/02 10:03:55;;;;;;;6.47;3.20;;;20.30;30.10;;;;;;5006223;28;20650;-65
2023/08/02 10:06:24;;;;;;;6.47;3.50;;;20.60;29.70;;;;;;5008973;28;20464;-65
2023/08/02 10:08:54;;;;;;;5.93;3.60;;;20.70;28.40;;;;;;5009547;28;20468;-65
2023/08/02 10:11:24;;;;;;;6.30;2.80;;;20.80;28.00;;;;;;5007536;28;20822;-65
2023/08/02 10:13:53;;;;;;;5.07;3.07;;;20.90;26.50;;;;;;5004567;28;20483;-65
2023/08/02 10:16:24;;;;;;;5.90;2.73;;;20.90;26.50;;;;;;5008007;28;20499;-65
2023/08/02 10:18:52;;;;;;;4.80;2.43;;;21.00;26.60;;;;;;5004465;28;20452;-67
2023/08/02 10:21:22;;;;;;;5.77;2.40;;;21.00;25.70;;;;;;5009011;28;20460;-65
2023/08/02 10:23:50;;;;;;;8.27;2.83;;;21.10;25.70;;;;;;5008293;28;21199;-65
2023/08/02 10:26:18;;;;;;;6.10;3.20;;;21.20;25.40;;;;;;5008988;28;20460;-65
2023/08/02 10:28:46;;;;;;;6.87;2.73;;;21.30;23.50;;;;;;5002345;28;20463;-65
2023/08/02 10:31:15;;;;;;;8.10;3.00;;;21.40;22.90;;;;;;5005439;28;20570;-65
2023/08/02 10:33:41;;;;;;;5.30;2.73;;;21.50;24.00;;;;;;5007834;28;20479;-65
2023/08/02 10:36:09;;;;;;;5.73;2.80;;;21.80;22.60;;;;;;5008638;28;20464;-66
2023/08/02 10:38:48;;;;;;;7.33;2.80;;;22.10;22.10;;;;;;5008819;28;20456;-65
2023/08/02 10:41:16;;;;;;;4.77;2.13;;;22.50;21.80;;;;;;5007459;28;20803;-66
2023/08/02 10:44:14;;;;;;;5.67;2.80;;;22.80;19.90;;;;;;5008800;28;20484;-65
2023/08/02 10:46:41;;;;;;;7.30;3.00;;;23.00;18.60;;;;;;5009271;28;20467;-65
2023/08/02 10:49:36;;;;;;;5.20;2.77;;;23.10;17.70;;;;;;5008812;28;20483;-65
2023/08/02 10:52:24;;;;;;;4.47;2.47;;;23.00;18.10;;;;;;5001339;28;20892;-65
2023/08/02 10:55:07;;;;;;;5.33;2.80;;;23.00;18.40;;;;;;5007926;28;21133;-65
2023/08/02 10:57:34;;;;;;;5.40;2.90;;;23.10;18.60;;;;;;5001196;28;20837;-65
2023/08/02 11:00:17;;;;;;;7.30;3.83;;;23.40;18.70;;;;;;5008122;28;20831;-66
2023/08/02 11:02:48;;;;;;;6.17;2.73;;;23.80;16.40;;;;;;5008537;28;20470;-65
2023/08/02 11:05:18;;;;;;;6.67;2.87;;;24.10;16.50;;;;;;5006095;28;21001;-66
2023/08/02 11:07:58;;;;;;;4.30;2.30;;;24.10;15.60;;;;;;5007520;28;20466;-65
2023/08/02 11:10:25;;;;;;;5.40;2.60;;;24.10;16.00;;;;;;5000554;28;20562;-65
2023/08/02 11:12:53;;;;;;;5.23;2.53;;;24.20;15.80;;;;;;5007452;28;20464;-66
2023/08/02 11:15:22;;;;;;;5.40;2.57;;;24.40;15.50;;;;;;5005712;28;20531;-65
2023/08/02 11:17:54;;;;;;;5.30;2.50;;;24.70;14.80;;;;;;5008110;28;21179;-65
2023/08/02 11:20:25;;;;;;;5.30;2.83;;;24.90;14.00;;;;;;5007175;28;20464;-66
2023/08/02 11:22:52;;;;;;;6.43;2.80;;;24.90;14.00;;;;;;5006952;28;20486;-65
2023/08/02 11:25:20;;;;;;;6.40;3.20;;;25.10;13.00;;;;;;5005410;28;20520;-65
2023/08/02 11:27:46;;;;;;;5.57;2.90;;;25.20;12.30;;;;;;5007631;28;20491;-65
2023/08/02 11:30:13;;;;;;;5.43;3.10;;;25.20;11.80;;;;;;5004809;28;20467;-65
2023/08/02 11:32:45;;;;;;;6.30;3.03;;;25.20;12.30;;;;;;5007048;28;20459;-66
2023/08/02 11:35:16;;;;;;;4.80;2.97;;;25.20;12.50;;;;;;5008936;28;20478;-65
2023/08/02 11:37:43;;;;;;;5.17;2.40;;;25.20;12.50;;;;;;5010995;28;20482;-65
2023/08/02 11:40:10;;;;;;;6.00;3.30;;;25.20;12.40;;;;;;5006621;28;20456;-66
2023/08/02 11:42:47;;;;;;;6.57;3.37;;;25.10;12.20;;;;;;5010203;28;20464;-65
2023/08/02 11:45:13;;;;;;;6.13;3.10;;;25.10;12.40;;;;;;5005825;28;21004;-65
2023/08/02 11:47:40;;;;;;;7.20;3.30;;;25.20;12.60;;;;;;5010090;28;21464;-65
2023/08/02 11:50:09;;;;;;;5.80;2.40;;;25.10;13.40;;;;;;5009322;28;20470;-65
2023/08/02 11:52:35;;;;;;;5.37;2.93;;;24.90;14.00;;;;;;5007235;28;21304;-65
2023/08/02 11:55:03;;;;;;;5.50;3.37;;;24.80;14.60;;;;;;5009554;28;20497;-65
2023/08/02 11:57:30;;;;;;;5.00;2.43;;;24.70;13.40;;;;;;5010754;28;21572;-65
2023/08/02 11:59:59;;;;;;;7.40;3.00;;;24.50;14.50;;;;;;5012428;28;20467;-66
2023/08/02 12:02:28;;;;;;;7.60;3.13;;;24.40;15.90;;;;;;5009717;28;20471;-65
2023/08/02 12:04:55;;;;;;;5.87;3.10;;;24.30;16.30;;;;;;5012220;28;20483;-65
2023/08/02 12:07:27;;;;;;;5.70;3.20;;;24.30;17.50;;;;;;5010910;28;20451;-66
2023/08/02 12:09:54;;;;;;;7.93;3.60;;;24.20;17.20;;;;;;5012221;28;20456;-66
2023/08/02 12:12:21;;;;;;;5.67;3.20;;;24.30;17.80;;;;;;5011343;28;20452;-65
2023/08/02 12:14:48;;;;;;;7.10;3.10;;;24.30;17.60;;;;;;5006470;28;20493;-65
2023/08/02 12:17:19;;;;;;;6.00;3.53;;;24.40;16.80;;;;;;5008959;28;20471;-65
2023/08/02 12:19:46;;;;;;;6.43;3.07;;;24.50;16.50;;;;;;5007786;28;20464;-65
2023/08/02 12:22:13;;;;;;;9.93;3.30;;;24.70;15.60;;;;;;5001672;28;20952;-65
2023/08/02 12:24:42;;;;;;;6.43;3.57;;;24.80;14.80;;;;;;5008055;28;20499;-66
2023/08/02 12:27:14;;;;;;;6.10;2.93;;;25.00;15.20;;;;;;5011621;28;20538;-66
2023/08/02 12:29:41;;;;;;;7.60;3.90;;;25.10;14.70;;;;;;5010419;28;20478;-66
2023/08/02 12:32:08;;;;;;;6.13;3.50;;;25.30;14.60;;;;;;5010325;28;20476;-66
2023/08/02 12:34:36;;;;;;;5.60;3.50;;;25.50;12.90;;;;;;5011015;28;20518;-65
2023/08/02 12:37:02;;;;;;;7.97;3.10;;;25.50;12.10;;;;;;5011077;28;20456;-66
2023/08/02 12:39:29;;;;;;;5.33;3.00;;;25.60;12.10;;;;;;5010804;28;20459;-65
2023/08/02 12:41:57;;;;;;;6.00;3.43;;;25.80;13.30;;;;;;5010642;28;20538;-66
2023/08/02 12:44:24;;;;;;;7.20;3.30;;;25.90;12.90;;;;;;5011072;28;20487;-66
2023/08/02 12:46:51;;;;;;;7.00;3.27;;;25.90;12.10;;;;;;5011322;28;20467;-66
2023/08/02 12:49:17;;;;;;;5.10;2.87;;;25.80;11.50;;;;;;5011019;28;20478;-65